»·PEaware :: N8782R KPSP-KHND

N8782R :: KPSP-KHND

FLIGHT INFORMATION

Flight Status: Arrived
Operator: Privately registered:
United States
More flights under this callsign
Pilot: Alex C. (14758)
Aircraft: BEECH AIRCRAFT SUPER KING AIR COMMUTER
(BE20)
More flights by this aircraft type
Origin: KPSP Palm Springs Intl
United States
Destination: KHND Henderson
United States
More flights between these airports :: More routes between these airports
Route: +GFS
File this flight plan on PilotEdge
Remarks: IFR KSBA / KSAN 15,000
Altitude:
(Current/Filed)
17,000ft
Speed:
(Current/Filed)
220kts
Departed: 17-Sep-17 10:02 AM
Arrived: 17-Sep-17 11:16 AM
Distance/Time
Traveled:
145nm/1:13
Distance/Time
To Go:
Arrived

Flight Plot

Page will automatically refresh every two minutes.

Flight plan parsing failed; only flown route is shown


Map Options




Map Legend


Flown Route
Filed Route
Departure Airport
Arrival Airport
Navaid (VOR, NDB)
Fix

Horizontal Profiles

Position Reports

Time Latitude Longitude Heading Altitude Ground
Speed
17-Sep-17 09:34 33.825059 -116.509404 358 481ft 0kts
17-Sep-17 09:35 33.825059 -116.509404 358 481ft 0kts
17-Sep-17 09:36 33.825059 -116.509404 358 481ft 0kts
17-Sep-17 09:37 33.825059 -116.509404 358 481ft 0kts
17-Sep-17 09:38 33.825059 -116.509404 358 481ft 0kts
17-Sep-17 09:39 33.825059 -116.509404 358 481ft 0kts
17-Sep-17 09:40 33.825059 -116.509404 358 481ft 0kts
17-Sep-17 09:41 33.825059 -116.509404 358 481ft 0kts
17-Sep-17 09:42 33.825059 -116.509404 358 481ft 0kts
17-Sep-17 09:43 33.825059 -116.509404 358 481ft 0kts
17-Sep-17 09:44 33.825059 -116.509404 358 481ft 0kts
17-Sep-17 09:45 33.825059 -116.509404 358 481ft 0kts
17-Sep-17 09:46 33.825059 -116.509404 358 481ft 0kts
17-Sep-17 09:47 33.825059 -116.509404 358 481ft 0kts
17-Sep-17 09:48 33.825059 -116.509404 358 481ft 0kts
17-Sep-17 09:49 33.825059 -116.509404 358 481ft 0kts
17-Sep-17 09:50 33.825059 -116.509404 358 481ft 0kts
17-Sep-17 09:51 33.825059 -116.509404 358 481ft 0kts
17-Sep-17 09:52 33.825059 -116.509404 358 481ft 0kts
17-Sep-17 09:53 33.825059 -116.509404 358 481ft 0kts
17-Sep-17 09:54 33.825059 -116.509404 358 481ft 0kts
17-Sep-17 09:55 33.825059 -116.509404 358 481ft 0kts
17-Sep-17 09:56 33.825059 -116.509404 358 481ft 0kts
17-Sep-17 09:57 33.825059 -116.509404 358 481ft 0kts
17-Sep-17 09:58 33.825105 -116.509406 357 481ft 6kts
17-Sep-17 09:59 33.825881 -116.506302 141 481ft 12kts
17-Sep-17 10:00 33.818520 -116.499443 89 480ft 12kts
17-Sep-17 10:01 33.818524 -116.498970 89 481ft 0kts
17-Sep-17 10:02 33.818524 -116.498970 89 481ft 0kts
17-Sep-17 10:03 33.818524 -116.498970 89 481ft 0kts
17-Sep-17 10:04 33.818524 -116.498970 89 481ft 0kts
17-Sep-17 10:05 33.818524 -116.498970 89 481ft 0kts
17-Sep-17 10:06 33.819781 -116.498844 324 481ft 46kts
17-Sep-17 10:07 33.832926 -116.510435 323 635ft 138kts
17-Sep-17 10:08 33.854622 -116.529957 322 1535ft 162kts
17-Sep-17 10:09 33.880854 -116.550800 356 3023ft 162kts
17-Sep-17 10:10 33.893698 -116.522212 116 4334ft 178kts
17-Sep-17 10:11 33.880123 -116.484463 104 5671ft 180kts
17-Sep-17 10:12 33.872846 -116.441375 96 6968ft 183kts
17-Sep-17 10:13 33.882246 -116.398308 65 8234ft 183kts
17-Sep-17 10:14 33.897417 -116.355885 64 9467ft 189kts
17-Sep-17 10:15 33.908450 -116.325404 65 10614ft 179kts
17-Sep-17 10:16 33.923012 -116.285163 65 11900ft 184kts
17-Sep-17 10:17 33.937963 -116.244379 65 13312ft 182kts
17-Sep-17 10:18 33.953388 -116.202646 65 14668ft 187kts
17-Sep-17 10:19 33.969239 -116.159492 65 15947ft 192kts
17-Sep-17 10:20 33.985552 -116.115066 64 17207ft 199kts
17-Sep-17 10:21 34.004276 -116.064377 65 17152ft 256kts
17-Sep-17 10:22 34.027902 -116.000226 65 17112ft 277kts
17-Sep-17 10:23 34.051149 -115.936761 65 17105ft 284kts
17-Sep-17 10:24 34.074098 -115.873946 65 17103ft 288kts
17-Sep-17 10:25 34.097197 -115.810627 65 17102ft 289kts
17-Sep-17 10:26 34.125920 -115.753502 41 17108ft 286kts
17-Sep-17 10:27 34.167096 -115.707532 40 17102ft 287kts
17-Sep-17 10:28 34.208997 -115.660842 40 17101ft 287kts
17-Sep-17 10:29 34.251051 -115.613668 40 17102ft 288kts
17-Sep-17 10:30 34.292016 -115.567472 40 17102ft 288kts
17-Sep-17 10:31 34.335762 -115.524828 17 17107ft 281kts
17-Sep-17 10:32 34.387595 -115.502214 15 17103ft 281kts
17-Sep-17 10:33 34.439463 -115.479957 15 17102ft 282kts
17-Sep-17 10:34 34.491685 -115.457334 15 17103ft 282kts
17-Sep-17 10:35 34.542853 -115.435058 15 17103ft 282kts
17-Sep-17 10:36 34.593937 -115.412789 15 17006ft 285kts
17-Sep-17 10:37 34.645823 -115.390095 15 16999ft 280kts
17-Sep-17 10:38 34.696063 -115.367980 15 16996ft 268kts
17-Sep-17 10:39 34.744618 -115.346645 16 17007ft 260kts
17-Sep-17 10:40 34.792912 -115.325501 16 16336ft 260kts
17-Sep-17 10:41 34.841469 -115.304336 16 15569ft 268kts
17-Sep-17 10:42 34.891154 -115.282432 16 15147ft 264kts
17-Sep-17 10:43 34.938785 -115.261411 16 14698ft 261kts
17-Sep-17 10:44 34.985635 -115.240798 17 14191ft 265kts
17-Sep-17 10:45 35.033568 -115.219802 18 13960ft 273kts
17-Sep-17 10:46 35.081334 -115.198511 18 13870ft 271kts
17-Sep-17 10:47 35.127733 -115.178009 14 13744ft 269kts
17-Sep-17 10:48 35.173859 -115.174047 0 13461ft 266kts
17-Sep-17 10:49 35.217972 -115.172032 0 13095ft 265kts
17-Sep-17 10:50 35.267489 -115.168311 1 12697ft 264kts
17-Sep-17 10:51 35.316863 -115.165046 2 12314ft 264kts
17-Sep-17 10:52 35.365673 -115.162003 1 11968ft 263kts
17-Sep-17 10:53 35.413922 -115.159773 1 11659ft 262kts
17-Sep-17 10:54 35.460854 -115.157647 1 11381ft 261kts
17-Sep-17 10:55 35.505544 -115.155626 1 11282ft 223kts
17-Sep-17 10:56 35.542369 -115.153955 1 10992ft 189kts
17-Sep-17 10:57 35.579173 -115.152405 2 10180ft 190kts
17-Sep-17 10:58 35.614032 -115.150834 2 9446ft 188kts
17-Sep-17 10:59 35.649315 -115.149113 2 8777ft 180kts
17-Sep-17 11:00 35.681899 -115.147568 1 8032ft 179kts
17-Sep-17 11:01 35.713767 -115.146093 1 7295ft 176kts
17-Sep-17 11:02 35.746084 -115.144607 1 6362ft 189kts
17-Sep-17 11:03 35.782133 -115.141442 6 6355ft 200kts
17-Sep-17 11:04 35.816081 -115.136356 359 6566ft 175kts
17-Sep-17 11:05 35.847248 -115.136297 358 6632ft 175kts
17-Sep-17 11:06 35.871278 -115.155131 272 6626ft 181kts
17-Sep-17 11:07 35.848385 -115.179067 183 6753ft 173kts
17-Sep-17 11:08 35.814726 -115.182051 182 6859ft 180kts
17-Sep-17 11:09 35.780821 -115.184834 182 6899ft 176kts
17-Sep-17 11:10 35.756549 -115.165922 87 6907ft 172kts
17-Sep-17 11:11 35.781471 -115.147136 1 6731ft 183kts
17-Sep-17 11:12 35.814007 -115.147820 5 6205ft 164kts
17-Sep-17 11:13 35.840093 -115.146339 6 5766ft 145kts
17-Sep-17 11:14 35.865510 -115.144359 10 5680ft 149kts
17-Sep-17 11:15 35.889678 -115.140376 11 5024ft 135kts
17-Sep-17 11:16 35.910597 -115.137430 8 4214ft 133kts
17-Sep-17 11:17 35.930637 -115.136485 4 3422ft 130kts
17-Sep-17 11:18 35.949330 -115.135973 2 2883ft 125kts
17-Sep-17 11:19 35.966032 -115.135511 2 2385ft 98kts
17-Sep-17 11:20 35.970922 -115.136301 271 2384ft 0kts
17-Sep-17 11:21 35.971061 -115.136961 338 2385ft 9kts
17-Sep-17 11:22 35.974460 -115.137345 273 2385ft 14kts
17-Sep-17 11:23 35.974909 -115.138814 323 2384ft 0kts
17-Sep-17 11:24 35.974909 -115.138814 323 2384ft 0kts

Navigation Log

Ident Type
Flight plan parsing failed, navigation log unavailable